Time;durP1;ratioP1;P1;durP2;ratioP2;P2;SDS_P1;SDS_P2;PMS_P1;PMS_P2;Temp;Humidity;BMP_temperature;BMP_pressure;BME280_temperature;BME280_humidity;BME280_pressure;Samples;Min_cycle;Max_cycle;Signal;HPM_P1;HPM_P2
2022/01/15 00:02:23;;;;;;;35.42;16.42;;;154.20;1766.40;;;;;;5014045;28;20022;-73
2022/01/15 00:04:49;;;;;;;35.30;16.40;;;154.20;1766.40;;;;;;5014187;28;20030;-74
2022/01/15 00:07:14;;;;;;;30.13;15.48;;;154.20;1766.40;;;;;;5013912;28;20120;-73
2022/01/15 00:09:43;;;;;;;28.00;14.00;;;154.20;1766.40;;;;;;5013872;28;20117;-73
2022/01/15 00:12:09;;;;;;;23.80;12.35;;;154.20;1766.40;;;;;;5029108;28;20038;-73
2022/01/15 00:14:39;;;;;;;21.67;10.68;;;154.20;1792.00;;;;;;5013775;28;20017;-73
2022/01/15 00:17:16;;;;;;;24.55;12.43;;;154.20;1792.00;;;;;;5014112;28;20076;-74
2022/01/15 00:19:42;;;;;;;22.27;11.38;;;154.10;1766.40;;;;;;5013765;28;20077;-66
2022/01/15 00:22:16;;;;;;;24.83;11.60;;;154.10;1792.00;;;;;;5014014;28;20021;-65
2022/01/15 00:24:43;;;;;;;26.73;12.57;;;154.10;1766.40;;;;;;5013839;28;20046;-65
2022/01/15 00:27:09;;;;;;;22.95;11.80;;;154.10;1792.00;;;;;;5013879;28;20034;-65
2022/01/15 00:29:36;;;;;;;25.45;12.05;;;154.10;1766.40;;;;;;5013658;28;20076;-65
2022/01/15 00:32:04;;;;;;;21.30;11.68;;;154.10;1792.00;;;;;;5013971;28;20109;-66
2022/01/15 00:34:30;;;;;;;21.02;11.23;;;154.10;1792.00;;;;;;5013628;28;20026;-65
2022/01/15 00:36:56;;;;;;;21.85;11.52;;;154.10;1792.00;;;;;;5013875;28;20026;-68
2022/01/15 00:39:22;;;;;;;20.65;11.30;;;154.10;1792.00;;;;;;5013401;28;20578;-70
2022/01/15 00:41:48;;;;;;;22.25;11.45;;;154.00;1792.00;;;;;;5014601;28;20063;-70
2022/01/15 00:44:14;;;;;;;25.35;12.32;;;154.10;1792.00;;;;;;5012506;28;20443;-65
2022/01/15 00:46:40;;;;;;;25.42;14.00;;;154.10;1792.00;;;;;;5013644;28;20038;-67
2022/01/15 00:49:05;;;;;;;21.02;12.63;;;154.10;1792.00;;;;;;5013626;28;20072;-68
2022/01/15 00:51:31;;;;;;;23.55;12.88;;;154.10;1792.00;;;;;;5013275;28;20133;-67
2022/01/15 00:53:57;;;;;;;25.80;13.18;;;154.00;1792.00;;;;;;5013559;28;20076;-67
2022/01/15 00:56:23;;;;;;;26.67;13.23;;;154.00;1792.00;;;;;;5013201;28;20034;-65
2022/01/15 00:58:48;;;;;;;24.98;12.77;;;154.00;1792.00;;;;;;5013638;28;20034;-65
2022/01/15 01:01:14;;;;;;;25.75;13.88;;;154.00;1817.60;;;;;;5013085;28;20088;-65
2022/01/15 01:03:40;;;;;;;24.30;12.75;;;154.00;1792.00;;;;;;5013593;28;20080;-65
2022/01/15 01:06:06;;;;;;;27.08;14.40;;;154.00;1792.00;;;;;;5015179;28;20029;-64
2022/01/15 01:08:31;;;;;;;24.98;12.73;;;154.00;1792.00;;;;;;5017371;28;20034;-67
2022/01/15 01:10:59;;;;;;;25.83;12.90;;;153.90;1792.00;;;;;;5017000;28;20084;-66
2022/01/15 01:22:18;;;;;;;21.52;11.25;;;153.80;1817.60;;;;;;5017392;28;20093;-65
2022/01/15 01:24:22;;;;;;;24.92;12.80;;;153.70;1792.00;;;;;;5016739;28;20108;-65
2022/01/15 01:27:02;;;;;;;22.13;12.07;;;153.70;1817.60;;;;;;5016938;28;20057;-68
2022/01/15 01:32:03;;;;;;;20.23;11.68;;;153.60;1817.60;;;;;;5016674;28;20030;-67
2022/01/15 01:34:31;;;;;;;24.38;13.30;;;128.90;1843.20;;;;;;5016783;28;20448;-67
2022/01/15 01:39:38;;;;;;;32.85;14.15;;;153.60;1843.20;;;;;;5016641;28;20367;-67
2022/01/15 01:42:12;;;;;;;29.67;14.13;;;128.90;1792.00;;;;;;5016628;28;20494;-67
2022/01/15 01:44:42;;;;;;;29.55;13.43;;;128.90;1843.20;;;;;;5016462;28;20033;-66
2022/01/15 01:47:26;;;;;;;25.08;12.90;;;128.90;1817.60;;;;;;5016483;28;20076;-64
2022/01/15 01:49:52;;;;;;;27.13;13.05;;;128.80;1843.20;;;;;;5016574;28;20392;-64
2022/01/15 01:52:17;;;;;;;29.90;14.63;;;128.80;1843.20;;;;;;5016115;28;20053;-64
2022/01/15 01:54:43;;;;;;;24.85;12.82;;;128.70;1843.20;;;;;;5016179;28;20029;-64
2022/01/15 01:57:09;;;;;;;27.65;13.30;;;128.80;1868.80;;;;;;5016419;28;20034;-66
2022/01/15 01:59:37;;;;;;;24.35;12.82;;;128.70;1843.20;;;;;;5016332;28;20029;-66
2022/01/15 02:02:03;;;;;;;26.33;12.63;;;128.80;1868.80;;;;;;5016170;28;20368;-66
2022/01/15 02:04:29;;;;;;;21.80;11.10;;;128.80;1868.80;;;;;;5016456;28;20021;-67
2022/01/15 02:06:56;;;;;;;20.60;11.05;;;128.70;1868.80;;;;;;5015968;28;20369;-65
2022/01/15 02:09:23;;;;;;;22.27;10.68;;;128.80;1868.80;;;;;;5016085;28;20042;-65
2022/01/15 02:11:49;;;;;;;20.20;11.55;;;128.80;1843.20;;;;;;5015916;28;20463;-65
2022/01/15 02:14:28;;;;;;;20.08;11.20;;;128.90;1868.80;;;;;;5016011;28;20030;-65
2022/01/15 02:16:55;;;;;;;19.05;11.27;;;128.90;1843.20;;;;;;5015168;28;20034;-65
2022/01/15 02:19:21;;;;;;;23.65;11.57;;;153.60;1843.20;;;;;;5015647;28;20618;-64
2022/01/15 02:24:14;;;;;;;27.00;11.88;;;128.90;1843.20;;;;;;5015680;28;20036;-67
2022/01/15 02:26:39;;;;;;;22.90;12.95;;;153.60;1868.80;;;;;;5015411;28;20042;-62
2022/01/15 02:29:07;;;;;;;24.20;13.32;;;153.60;1843.20;;;;;;5015440;28;20025;-62
2022/01/15 02:31:34;;;;;;;27.63;12.48;;;128.90;1868.80;;;;;;5016237;28;20022;-63
2022/01/15 02:34:03;;;;;;;19.30;11.02;;;128.90;1894.40;;;;;;5015554;28;20030;-60
2022/01/15 02:36:32;;;;;;;22.45;13.73;;;153.60;1843.20;;;;;;5015359;28;20218;-65
2022/01/15 02:38:58;;;;;;;21.17;11.98;;;153.60;1868.80;;;;;;5015383;28;20030;-66
2022/01/15 02:41:26;;;;;;;22.23;12.55;;;153.60;1843.20;;;;;;5015467;28;20033;-66
2022/01/15 02:43:53;;;;;;;19.73;11.13;;;128.90;1868.80;;;;;;5015427;28;20467;-66
2022/01/15 02:46:20;;;;;;;21.23;11.35;;;153.60;1868.80;;;;;;5015154;28;20495;-65
2022/01/15 02:48:53;;;;;;;21.15;12.05;;;128.90;1868.80;;;;;;5015321;28;20026;-64
2022/01/15 02:51:24;;;;;;;20.60;11.32;;;128.80;1894.40;;;;;;5015074;28;20038;-63
2022/01/15 02:53:55;;;;;;;24.40;13.32;;;128.90;1843.20;;;;;;5015056;28;20029;-62
2022/01/15 02:56:34;;;;;;;23.85;14.15;;;128.80;1894.40;;;;;;5015268;28;20036;-62
2022/01/15 02:59:01;;;;;;;22.45;13.25;;;128.90;1868.80;;;;;;5014995;28;20037;-62
2022/01/15 03:01:26;;;;;;;19.85;11.48;;;128.70;1894.40;;;;;;5015134;28;20041;-62
2022/01/15 03:03:52;;;;;;;20.55;12.13;;;128.80;1920.00;;;;;;5015221;28;20030;-62
2022/01/15 03:06:20;;;;;;;25.65;13.85;;;128.80;1868.80;;;;;;5014961;28;20495;-61
2022/01/15 03:08:47;;;;;;;20.77;12.00;;;128.90;1894.40;;;;;;5029965;28;20450;-62
2022/01/15 03:11:13;;;;;;;18.65;11.00;;;128.80;1868.80;;;;;;5014969;28;20387;-61
2022/01/15 03:13:41;;;;;;;19.00;11.57;;;128.90;1894.40;;;;;;5015052;28;20056;-61
2022/01/15 03:16:08;;;;;;;19.15;10.73;;;153.60;1868.80;;;;;;5015018;28;20034;-61
2022/01/15 03:18:34;;;;;;;19.17;11.15;;;128.80;1894.40;;;;;;5014704;28;20033;-61
2022/01/15 03:21:00;;;;;;;20.90;11.65;;;128.80;1894.40;;;;;;5014862;28;20476;-61
2022/01/15 03:23:26;;;;;;;19.63;11.45;;;128.80;1843.20;;;;;;5014345;28;20030;-62
2022/01/15 03:25:52;;;;;;;27.42;12.48;;;128.80;1894.40;;;;;;5014387;28;20069;-61
2022/01/15 03:28:18;;;;;;;23.38;13.45;;;128.80;1894.40;;;;;;5013871;28;20108;-61
2022/01/15 03:30:44;;;;;;;24.33;13.15;;;128.70;1894.40;;;;;;5014164;28;20057;-63
2022/01/15 03:33:10;;;;;;;38.67;15.82;;;128.80;1894.40;;;;;;5014556;28;20466;-63
2022/01/15 03:35:36;;;;;;;31.25;15.27;;;128.60;1868.80;;;;;;5014555;28;20087;-63
2022/01/15 03:38:03;;;;;;;47.15;19.60;;;128.50;1894.40;;;;;;5014412;28;20061;-63
2022/01/15 03:40:30;;;;;;;62.75;26.35;;;128.50;1868.80;;;;;;5014303;28;20052;-63
2022/01/15 03:42:56;;;;;;;67.30;27.42;;;128.40;1920.00;;;;;;5014308;28;20026;-63
2022/01/15 03:45:21;;;;;;;76.75;30.73;;;128.40;1920.00;;;;;;5014384;28;20033;-63
2022/01/15 03:47:48;;;;;;;60.20;26.92;;;128.50;1868.80;;;;;;5014143;28;20140;-63
2022/01/15 03:50:15;;;;;;;53.92;24.80;;;128.40;1920.00;;;;;;5014214;28;20033;-63
2022/01/15 03:52:41;;;;;;;42.30;22.08;;;128.40;1868.80;;;;;;5014208;28;20026;-63
2022/01/15 03:55:08;;;;;;;34.88;18.83;;;128.20;1920.00;;;;;;5014140;28;20022;-63
2022/01/15 03:57:34;;;;;;;28.08;16.85;;;128.20;1945.60;;;;;;5014193;28;20022;-63
2022/01/15 04:00:00;;;;;;;26.52;14.82;;;128.10;1920.00;;;;;;5014169;28;20025;-63
2022/01/15 04:02:27;;;;;;;23.73;15.32;;;128.10;1945.60;;;;;;5014113;28;20443;-62
2022/01/15 04:04:53;;;;;;;26.48;15.40;;;128.00;1920.00;;;;;;5014064;28;20072;-61
2022/01/15 04:07:19;;;;;;;22.90;13.35;;;128.10;2022.40;;;;;;5014025;28;20421;-61
2022/01/15 04:09:45;;;;;;;22.52;13.38;;;128.10;1996.80;;;;;;5013976;28;20057;-62
2022/01/15 04:12:10;;;;;;;20.70;12.77;;;103.30;1945.60;;;;;;5012463;28;20080;-67
2022/01/15 04:14:36;;;;;;;27.20;13.23;;;128.00;1996.80;;;;;;5013911;28;20036;-62
2022/01/15 04:17:02;;;;;;;24.77;14.38;;;128.10;1971.20;;;;;;5013898;28;20026;-64
2022/01/15 04:19:29;;;;;;;27.58;14.93;;;128.10;1971.20;;;;;;5013847;28;20126;-64
2022/01/15 04:21:55;;;;;;;29.30;16.35;;;128.20;1971.20;;;;;;5013981;28;20113;-64
2022/01/15 04:24:21;;;;;;;35.38;18.65;;;128.10;1945.60;;;;;;5013668;28;20030;-64
2022/01/15 04:26:48;;;;;;;36.92;17.85;;;128.20;1971.20;;;;;;5013564;28;20047;-64
2022/01/15 04:29:15;;;;;;;32.03;17.10;;;128.00;1945.60;;;;;;5014039;28;20030;-62
2022/01/15 04:31:48;;;;;;;33.50;16.73;;;128.00;1971.20;;;;;;5013974;28;20104;-63
2022/01/15 04:34:25;;;;;;;29.63;16.17;;;128.00;1945.60;;;;;;5013719;28;20109;-62
2022/01/15 04:36:53;;;;;;;29.40;16.73;;;103.30;1945.60;;;;;;5013962;28;20123;-62
2022/01/15 04:39:19;;;;;;;35.20;19.55;;;103.30;1971.20;;;;;;5013498;28;20080;-61
2022/01/15 04:41:45;;;;;;;32.17;19.55;;;103.30;1920.00;;;;;;5016995;28;20420;-61
2022/01/15 04:44:11;;;;;;;37.17;19.88;;;103.30;1945.60;;;;;;5017725;28;20125;-61
2022/01/15 04:46:39;;;;;;;38.75;21.55;;;103.20;1920.00;;;;;;5017340;28;20113;-61
2022/01/15 04:49:05;;;;;;;37.67;20.73;;;103.20;1945.60;;;;;;5017580;28;20436;-62
2022/01/15 04:51:32;;;;;;;40.33;25.02;;;103.20;1945.60;;;;;;5017130;28;20129;-60
2022/01/15 04:53:58;;;;;;;39.10;22.08;;;103.10;1920.00;;;;;;5017010;28;20109;-61
2022/01/15 04:56:24;;;;;;;37.55;22.23;;;103.20;1945.60;;;;;;5017303;28;20467;-61
2022/01/15 04:58:50;;;;;;;35.50;20.95;;;103.10;1920.00;;;;;;5017435;28;20487;-61
2022/01/15 05:01:16;;;;;;;37.97;19.73;;;103.10;1945.60;;;;;;5017500;28;20080;-61
2022/01/15 05:03:41;;;;;;;33.47;19.50;;;103.10;1945.60;;;;;;5017264;28;20022;-62
2022/01/15 05:06:07;;;;;;;36.97;22.38;;;103.00;1920.00;;;;;;5017249;28;20049;-61
2022/01/15 05:08:33;;;;;;;38.95;20.80;;;103.00;1945.60;;;;;;5017485;28;20025;-61
2022/01/15 05:11:09;;;;;;;36.47;21.08;;;103.00;1945.60;;;;;;5017186;28;20044;-62
2022/01/15 05:13:36;;;;;;;40.67;22.73;;;103.00;1945.60;;;;;;5017225;28;20034;-62
2022/01/15 05:16:02;;;;;;;37.95;22.55;;;103.00;1945.60;;;;;;5017034;28;20022;-62
2022/01/15 05:18:28;;;;;;;43.28;24.55;;;103.00;1920.00;;;;;;5017584;28;20042;-61
2022/01/15 05:20:54;;;;;;;44.15;26.13;;;103.00;1945.60;;;;;;5017442;28;20369;-61
2022/01/15 05:23:20;;;;;;;48.58;27.38;;;103.00;1945.60;;;;;;5016869;28;20053;-60
2022/01/15 05:25:46;;;;;;;46.90;26.75;;;102.90;1945.60;;;;;;5016862;28;20471;-63
2022/01/15 05:28:12;;;;;;;45.83;25.98;;;102.90;1971.20;;;;;;5016830;28;20029;-62
2022/01/15 05:30:37;;;;;;;46.42;26.00;;;102.90;1945.60;;;;;;5016659;28;20040;-63
2022/01/15 05:33:03;;;;;;;46.47;25.98;;;102.90;1971.20;;;;;;5016779;28;20057;-62
2022/01/15 05:35:29;;;;;;;60.58;31.80;;;102.90;1945.60;;;;;;5016757;28;20057;-63
2022/01/15 05:37:57;;;;;;;71.75;34.13;;;102.90;1920.00;;;;;;5016651;28;20076;-62
2022/01/15 05:40:23;;;;;;;71.43;34.53;;;102.90;1971.20;;;;;;5016562;28;20383;-62
2022/01/15 05:42:50;;;;;;;77.10;36.88;;;103.00;1920.00;;;;;;5016573;28;20022;-62
2022/01/15 05:45:16;;;;;;;74.53;37.35;;;102.90;1920.00;;;;;;5016630;28;20025;-61
2022/01/15 05:47:42;;;;;;;70.53;35.40;;;103.00;1945.60;;;;;;5016504;28;20048;-61
2022/01/15 05:50:08;;;;;;;69.90;35.47;;;102.90;1894.40;;;;;;5015836;28;20026;-62
2022/01/15 05:52:34;;;;;;;67.40;35.35;;;103.00;1920.00;;;;;;5015381;28;20515;-61
2022/01/15 05:55:00;;;;;;;55.75;31.52;;;102.90;1945.60;;;;;;5016125;28;20054;-60
2022/01/15 05:57:26;;;;;;;49.53;27.92;;;102.90;1894.40;;;;;;5016181;28;20419;-61
2022/01/15 05:59:52;;;;;;;50.47;28.15;;;102.90;1920.00;;;;;;5016234;28;20030;-61
2022/01/15 06:02:21;;;;;;;49.38;25.95;;;103.00;1920.00;;;;;;5016064;28;20026;-61
2022/01/15 06:04:47;;;;;;;48.22;25.45;;;102.90;1868.80;;;;;;5016306;28;20361;-61
2022/01/15 06:07:13;;;;;;;45.85;25.70;;;103.00;1920.00;;;;;;5016106;28;20164;-62
2022/01/15 06:09:39;;;;;;;44.55;25.33;;;103.00;1920.00;;;;;;5015890;28;20101;-61
2022/01/15 06:12:05;;;;;;;45.72;26.23;;;103.00;1868.80;;;;;;5016179;28;20026;-59
2022/01/15 06:14:31;;;;;;;48.65;25.30;;;103.00;1920.00;;;;;;5015807;28;20021;-63
2022/01/15 06:17:00;;;;;;;51.88;27.73;;;103.00;1945.60;;;;;;5015885;28;20113;-63
2022/01/15 06:19:26;;;;;;;54.33;27.27;;;103.20;1971.20;;;;;;5015916;28;20075;-61
2022/01/15 06:21:52;;;;;;;62.30;31.67;;;103.20;1920.00;;;;;;5015933;28;20483;-61
2022/01/15 06:24:19;;;;;;;56.80;31.10;;;103.20;1920.00;;;;;;5015743;28;20475;-61
2022/01/15 06:26:44;;;;;;;63.35;30.73;;;103.20;1920.00;;;;;;5015711;28;20045;-62
2022/01/15 06:29:10;;;;;;;62.63;33.35;;;103.20;1868.80;;;;;;5015579;28;20475;-62
2022/01/15 06:31:36;;;;;;;67.15;36.40;;;103.10;1920.00;;;;;;5015596;28;20026;-62
2022/01/15 06:34:02;;;;;;;84.55;43.85;;;103.10;1945.60;;;;;;5015737;28;20490;-62
2022/01/15 06:36:28;;;;;;;105.72;57.83;;;103.10;1894.40;;;;;;5015745;28;20348;-61
2022/01/15 06:38:54;;;;;;;112.95;60.10;;;103.20;1945.60;;;;;;5015527;28;20025;-62
2022/01/15 06:41:20;;;;;;;125.15;65.63;;;103.20;1945.60;;;;;;5014081;28;20383;-61
2022/01/15 06:43:46;;;;;;;148.52;78.32;;;103.10;1894.40;;;;;;5015252;28;20036;-61
2022/01/15 06:46:12;;;;;;;149.27;75.72;;;103.10;1920.00;;;;;;5015496;28;20037;-62
2022/01/15 06:48:38;;;;;;;114.32;62.08;;;103.20;1945.60;;;;;;5015665;28;20018;-61
2022/01/15 06:51:04;;;;;;;81.45;43.35;;;103.20;1920.00;;;;;;5015284;28;20468;-61
2022/01/15 06:53:30;;;;;;;93.38;48.20;;;103.20;1894.40;;;;;;5015260;28;20022;-61
2022/01/15 06:55:56;;;;;;;101.43;53.38;;;103.10;1945.60;;;;;;5015150;28;20468;-62
2022/01/15 06:58:23;;;;;;;88.25;48.60;;;103.10;1945.60;;;;;;5015089;28;20030;-61
2022/01/15 07:00:49;;;;;;;69.03;38.85;;;103.10;1920.00;;;;;;5015018;28;20029;-60
2022/01/15 07:03:16;;;;;;;76.95;36.72;;;103.10;1894.40;;;;;;5014426;28;20459;-61
2022/01/15 07:05:42;;;;;;;92.78;35.25;;;103.10;1894.40;;;;;;5014958;28;20060;-61
2022/01/15 07:08:07;;;;;;;89.18;35.58;;;103.10;1920.00;;;;;;5015028;28;20056;-60
2022/01/15 07:10:38;;;;;;;125.18;44.33;;;103.20;1920.00;;;;;;5014865;28;20046;-60
2022/01/15 07:13:05;;;;;;;90.50;41.50;;;103.10;1920.00;;;;;;5015018;28;20369;-61
2022/01/15 07:15:32;;;;;;;81.82;32.85;;;103.10;1920.00;;;;;;5015022;28;20133;-61
2022/01/15 07:17:59;;;;;;;89.18;33.47;;;103.10;1920.00;;;;;;5014712;28;20033;-59
2022/01/15 07:20:25;;;;;;;96.03;35.40;;;103.10;1971.20;;;;;;5014772;28;20038;-60
2022/01/15 07:22:52;;;;;;;101.25;35.38;;;103.10;1971.20;;;;;;5014840;28;20026;-60
2022/01/15 07:25:17;;;;;;;82.97;29.90;;;103.10;1996.80;;;;;;5014675;28;20452;-61
2022/01/15 07:27:44;;;;;;;75.32;28.83;;;103.10;2022.40;;;;;;5014639;28;20096;-60
2022/01/15 07:30:11;;;;;;;64.20;23.95;;;103.20;1971.20;;;;;;5014506;28;20061;-60
2022/01/15 07:32:38;;;;;;;57.25;22.15;;;103.30;1920.00;;;;;;5014575;28;20116;-60
2022/01/15 07:35:04;;;;;;;59.15;24.75;;;103.30;1945.60;;;;;;5014695;28;20032;-59
2022/01/15 07:37:31;;;;;;;42.65;21.23;;;103.30;1945.60;;;;;;5014120;28;20411;-61
2022/01/15 07:39:58;;;;;;;33.75;17.73;;;103.30;1945.60;;;;;;5014221;28;20034;-60
2022/01/15 07:42:24;;;;;;;34.00;17.75;;;103.30;1945.60;;;;;;5014598;28;20037;-61
2022/01/15 07:44:49;;;;;;;33.17;19.23;;;128.00;1945.60;;;;;;5014679;28;20022;-60
2022/01/15 07:47:15;;;;;;;27.67;17.23;;;128.00;1971.20;;;;;;5014062;28;20376;-60
2022/01/15 07:49:41;;;;;;;26.02;16.30;;;128.00;1971.20;;;;;;5013166;28;20026;-61
2022/01/15 07:52:07;;;;;;;32.17;18.35;;;128.00;1971.20;;;;;;5013838;28;20050;-60
2022/01/15 07:54:33;;;;;;;38.90;21.95;;;103.30;1971.20;;;;;;5014122;28;20033;-61
2022/01/15 07:56:58;;;;;;;44.47;26.33;;;128.00;1971.20;;;;;;5014067;28;20026;-61
2022/01/15 07:59:25;;;;;;;48.67;26.35;;;128.00;1996.80;;;;;;5014234;28;20037;-61
2022/01/15 08:01:51;;;;;;;45.15;25.52;;;128.00;1996.80;;;;;;5013926;28;20033;-61
2022/01/15 08:04:17;;;;;;;46.65;24.08;;;128.10;1971.20;;;;;;5014176;28;20030;-61
2022/01/15 08:06:43;;;;;;;46.33;24.20;;;128.20;1996.80;;;;;;5013933;28;20046;-61
2022/01/15 08:09:09;;;;;;;46.58;23.20;;;128.20;1945.60;;;;;;5013937;28;20026;-61
2022/01/15 08:11:36;;;;;;;45.25;23.08;;;128.20;1971.20;;;;;;5013900;28;20033;-61
2022/01/15 08:14:02;;;;;;;46.75;25.02;;;128.30;1971.20;;;;;;5013857;28;20026;-60
2022/01/15 08:16:28;;;;;;;41.30;22.80;;;128.30;1971.20;;;;;;5013355;28;20034;-61
2022/01/15 08:18:53;;;;;;;41.45;23.42;;;128.30;1971.20;;;;;;5014384;28;20160;-61
2022/01/15 08:21:19;;;;;;;41.53;22.65;;;128.40;1945.60;;;;;;5013745;28;20046;-60
2022/01/15 08:23:45;;;;;;;41.08;22.92;;;128.30;1971.20;;;;;;5014206;28;20117;-61
2022/01/15 08:26:11;;;;;;;43.30;23.70;;;128.40;1971.20;;;;;;5013816;28;20380;-61
2022/01/15 08:28:37;;;;;;;42.65;24.23;;;128.40;1971.20;;;;;;5013691;28;20109;-61
2022/01/15 08:31:07;;;;;;;44.15;25.05;;;128.40;1971.20;;;;;;5013719;28;20079;-60
2022/01/15 08:33:33;;;;;;;41.90;24.55;;;128.40;1971.20;;;;;;5013778;28;20034;-60
2022/01/15 08:35:59;;;;;;;37.78;23.38;;;128.50;1971.20;;;;;;5013821;28;20044;-61
2022/01/15 08:38:25;;;;;;;37.55;23.98;;;128.50;1945.60;;;;;;5014044;28;20395;-61
2022/01/15 08:40:51;;;;;;;36.80;23.50;;;128.50;1971.20;;;;;;5013659;28;20030;-61
2022/01/15 08:43:17;;;;;;;42.65;26.05;;;128.60;1996.80;;;;;;5013876;28;20117;-60
2022/01/15 08:45:44;;;;;;;41.38;24.63;;;128.60;1971.20;;;;;;5013641;28;20022;-60
2022/01/15 08:48:10;;;;;;;37.80;23.73;;;128.60;1996.80;;;;;;5013261;28;20034;-60
2022/01/15 08:50:36;;;;;;;34.25;22.80;;;128.60;1971.20;;;;;;5013522;28;20050;-60
2022/01/15 08:53:06;;;;;;;35.75;22.13;;;128.70;1996.80;;;;;;5013397;28;20471;-61
2022/01/15 08:55:33;;;;;;;43.95;25.63;;;128.70;1971.20;;;;;;5013363;28;20049;-61
2022/01/15 08:57:59;;;;;;;30.45;19.90;;;128.80;1971.20;;;;;;5013688;28;20096;-60
2022/01/15 09:00:27;;;;;;;34.42;20.55;;;128.90;1971.20;;;;;;5013453;28;20467;-60
2022/01/15 09:02:55;;;;;;;33.40;20.85;;;128.90;1920.00;;;;;;5013394;28;20058;-60
2022/01/15 09:05:21;;;;;;;33.80;20.27;;;128.90;1971.20;;;;;;5013606;28;20080;-61
2022/01/15 09:07:47;;;;;;;41.63;27.20;;;128.90;1971.20;;;;;;5013534;28;20049;-60
2022/01/15 09:10:13;;;;;;;38.47;23.52;;;128.90;1971.20;;;;;;5012738;28;20391;-60
2022/01/15 09:12:39;;;;;;;37.40;22.98;;;153.60;1996.80;;;;;;5013392;28;20041;-60
2022/01/15 09:15:05;;;;;;;36.63;23.35;;;153.60;1920.00;;;;;;5013266;28;20113;-60
2022/01/15 09:17:31;;;;;;;46.08;22.73;;;153.70;1945.60;;;;;;5013402;28;20105;-61
2022/01/15 09:19:57;;;;;;;60.90;28.73;;;153.70;1945.60;;;;;;5013362;28;20033;-59
2022/01/15 09:22:23;;;;;;;55.65;25.98;;;153.70;1945.60;;;;;;5013456;28;20018;-61
2022/01/15 09:24:48;;;;;;;44.13;23.02;;;153.70;1945.60;;;;;;5013345;28;20510;-59
2022/01/15 09:30:12;;;;;;;37.30;20.20;;;153.80;1971.20;;;;;;5016882;28;20029;-60
2022/01/15 09:32:42;;;;;;;33.45;20.70;;;153.90;1971.20;;;;;;5016840;28;20033;-61
2022/01/15 09:35:09;;;;;;;36.33;22.35;;;154.00;1971.20;;;;;;5016967;28;20353;-60
2022/01/15 09:37:35;;;;;;;37.40;22.92;;;154.10;1971.20;;;;;;5016806;28;20064;-60
2022/01/15 09:40:02;;;;;;;42.20;24.90;;;154.10;1971.20;;;;;;5016457;28;20057;-63
2022/01/15 09:42:27;;;;;;;43.35;23.52;;;154.20;1971.20;;;;;;5016721;28;20488;-61
2022/01/15 09:44:54;;;;;;;33.15;20.25;;;154.20;2048.00;;;;;;5016633;28;20021;-61
2022/01/15 09:47:22;;;;;;;30.52;18.13;;;154.20;1945.60;;;;;;5017008;28;20034;-60
2022/01/15 09:49:50;;;;;;;27.27;17.55;;;154.20;1920.00;;;;;;5016575;28;20415;-60
2022/01/15 09:52:16;;;;;;;31.33;18.90;;;154.10;1945.60;;;;;;5016194;28;20125;-60
2022/01/15 09:54:43;;;;;;;38.42;21.85;;;154.20;1945.60;;;;;;5016193;28;20025;-60
2022/01/15 09:57:09;;;;;;;50.70;29.13;;;154.10;1920.00;;;;;;5016454;28;20065;-61
2022/01/15 09:59:36;;;;;;;41.88;25.20;;;154.20;1945.60;;;;;;5016492;28;20088;-61
2022/01/15 10:02:03;;;;;;;39.15;23.13;;;154.20;1920.00;;;;;;5016304;28;20574;-61
2022/01/15 10:04:32;;;;;;;40.05;23.50;;;154.10;1920.00;;;;;;5016044;28;20025;-61
2022/01/15 10:07:07;;;;;;;43.17;25.00;;;154.20;1945.60;;;;;;5015970;28;20033;-62
2022/01/15 10:09:33;;;;;;;;;;;154.20;1920.00;;;;;;5016648;28;20080;-61
2022/01/15 10:11:59;;;;;;;32.85;17.90;;;154.20;1945.60;;;;;;5015951;28;20354;-61
2022/01/15 10:14:29;;;;;;;26.80;15.82;;;154.20;1945.60;;;;;;5015987;28;20113;-62
2022/01/15 10:16:57;;;;;;;22.08;14.77;;;154.20;1971.20;;;;;;5015849;28;20029;-61
2022/01/15 10:19:25;;;;;;;25.73;15.32;;;154.30;1971.20;;;;;;5016021;28;20029;-61
2022/01/15 10:22:10;;;;;;;52.40;18.48;;;154.40;1971.20;;;;;;5015960;28;20531;-61
2022/01/15 10:24:37;;;;;;;30.98;18.08;;;179.20;2099.20;;;;;;5015778;28;20145;-62
2022/01/15 10:27:29;;;;;;;34.35;18.58;;;179.30;1945.60;;;;;;5016292;28;20124;-62
2022/01/15 10:29:59;;;;;;;36.22;20.55;;;179.30;1971.20;;;;;;5015748;28;20080;-62
2022/01/15 10:32:27;;;;;;;58.78;29.75;;;179.40;1945.60;;;;;;5015502;28;20029;-62
2022/01/15 10:34:53;;;;;;;98.38;53.28;;;179.40;1945.60;;;;;;5015752;28;20029;-75
2022/01/15 10:37:34;;;;;;;91.00;53.45;;;179.80;2227.20;;;;;;5015444;28;20105;-62
2022/01/15 10:40:07;;;;;;;120.18;64.22;;;204.80;2150.40;;;;;;5015001;28;20026;-62
2022/01/15 10:42:34;;;;;;;57.90;34.05;;;205.30;2073.60;;;;;;5015425;28;20025;-63
2022/01/15 10:45:10;;;;;;;76.30;47.78;;;205.50;1971.20;;;;;;5015346;28;20030;-60
2022/01/15 10:47:48;;;;;;;71.32;49.10;;;205.30;1843.20;;;;;;5015123;28;20042;-60
2022/01/15 10:50:24;;;;;;;52.80;34.35;;;205.40;1868.80;;;;;;5014959;28;20550;-60
2022/01/15 10:52:51;;;;;;;35.38;21.50;;;205.30;1843.20;;;;;;5015348;28;20092;-61
2022/01/15 10:55:23;;;;;;;25.15;17.45;;;205.30;1868.80;;;;;;5015067;28;20049;-61
2022/01/15 11:00:37;;;;;;;78.07;49.38;;;205.20;1843.20;;;;;;5090378;27;20418;-61
2022/01/15 11:03:17;;;;;;;44.58;29.85;;;205.30;1868.80;;;;;;5079409;28;20039;-60
2022/01/15 11:05:44;;;;;;;44.25;28.52;;;205.40;1843.20;;;;;;5079308;28;20119;-59
2022/01/15 11:08:26;;;;;;;36.53;25.75;;;205.40;1843.20;;;;;;5075589;28;20029;-66
2022/01/15 11:11:02;;;;;;;33.28;20.50;;;205.40;1843.20;;;;;;5050912;28;20036;-61
2022/01/15 11:13:37;;;;;;;28.65;19.17;;;205.30;1817.60;;;;;;5050580;28;20467;-60
2022/01/15 11:16:07;;;;;;;34.63;23.30;;;205.40;1843.20;;;;;;5050863;28;20040;-60
2022/01/15 11:18:35;;;;;;;65.93;37.58;;;205.40;1817.60;;;;;;5050729;28;20601;-60
2022/01/15 11:21:07;;;;;;;52.78;28.88;;;205.40;1817.60;;;;;;5050563;28;20029;-61
2022/01/15 11:23:35;;;;;;;79.95;42.28;;;205.40;1843.20;;;;;;5050533;28;20467;-59
2022/01/15 11:26:04;;;;;;;86.28;44.88;;;205.50;1817.60;;;;;;5050530;28;20028;-61
2022/01/15 11:28:33;;;;;;;67.25;37.78;;;205.50;1817.60;;;;;;5050620;28;20095;-61
2022/01/15 11:31:08;;;;;;;52.92;30.08;;;205.50;1792.00;;;;;;5050281;28;20452;-60
2022/01/15 11:33:36;;;;;;;37.63;21.70;;;205.50;1792.00;;;;;;5050156;28;20072;-59
2022/01/15 11:36:04;;;;;;;32.08;18.90;;;205.50;1792.00;;;;;;5050292;28;20037;-62
2022/01/15 11:38:41;;;;;;;30.95;20.55;;;205.60;1792.00;;;;;;5050282;28;20397;-62
2022/01/15 11:41:27;;;;;;;31.75;18.67;;;205.70;1792.00;;;;;;5050161;28;20064;-62
2022/01/15 11:43:56;;;;;;;27.45;18.33;;;205.60;1792.00;;;;;;5050041;28;20122;-62
2022/01/15 11:46:42;;;;;;;24.75;16.50;;;205.70;1792.00;;;;;;5050363;28;20112;-62
2022/01/15 11:49:30;;;;;;;29.40;17.92;;;205.70;1766.40;;;;;;5066790;28;20025;-61
2022/01/15 11:52:19;;;;;;;28.88;18.65;;;205.70;1766.40;;;;;;5047976;28;20121;-62
2022/01/15 11:55:02;;;;;;;28.23;18.95;;;205.70;1766.40;;;;;;5047791;28;20032;-62
2022/01/15 11:57:45;;;;;;;29.98;19.02;;;205.70;1740.80;;;;;;5047855;28;20589;-62
2022/01/15 12:00:20;;;;;;;28.05;18.65;;;205.70;1740.80;;;;;;5047680;28;20056;-62
2022/01/15 12:03:08;;;;;;;33.75;20.10;;;205.70;1792.00;;;;;;5047683;28;20094;-62
2022/01/15 12:05:46;;;;;;;30.05;19.42;;;230.40;1792.00;;;;;;5058621;28;20025;-61
2022/01/15 12:08:12;;;;;;;33.47;21.15;;;230.40;1766.40;;;;;;5064181;28;20045;-61
2022/01/15 12:10:42;;;;;;;36.85;21.92;;;205.70;1766.40;;;;;;5060286;28;20052;-62
2022/01/15 12:13:18;;;;;;;33.90;20.80;;;205.70;1740.80;;;;;;5054231;28;20033;-62
2022/01/15 12:15:44;;;;;;;33.25;20.13;;;205.70;1766.40;;;;;;5054172;28;20029;-62
2022/01/15 12:18:18;;;;;;;30.33;19.27;;;230.40;1766.40;;;;;;5049718;28;20087;-62
2022/01/15 12:20:45;;;;;;;32.83;20.80;;;205.70;1766.40;;;;;;5034649;28;20033;-61
2022/01/15 12:23:19;;;;;;;31.88;21.02;;;205.70;1766.40;;;;;;5034282;28;20117;-62
2022/01/15 12:25:47;;;;;;;30.17;19.02;;;205.60;1792.00;;;;;;5034155;28;20037;-64